PWSweather.com
Personal Weather Stations
Station Observations
RTINEZ
TerrassaES 08226

TerrassaES 08226

Lat: 41.5762194, Lon: 2.028993700000001

Elevation: 367

Station Type: Watson W8681

www.rtinez.cat

High Low Average
Temperature 78.8°F26.0°C 64.0°F17.8°C 68.7°F20.4°C
Dew Point 66.9°F19.4°C 60.2°F15.7°C 63.6°F17.6°C
Winds 10.7 mph 17.2 kmh Calm Calm 4.0 mph SE6.4 kmh SE
Wind Gusts 122.0 mph196.3 kmh 0.7 mph1.1 kmh 12.0 mph19.3 kmh
Humidity 94% 60% 84%
Pressure 30.02 in1016.6 mb 29.87 in1011.5 mb -
Precipitation 0.07 in1.8 mm - -
Hour Temp Dew Point Humidity Winds Wind Gusts Pressure Precip Precip Rate Daily Precip Total
12:00 AM 68.2°F20.1°C 63.2°F17.3°C 84% 7.6 mph NE12.2 kmh NE 118.0 mph189.9 kmh 30.02 in1016.6 mb 0.00 in0.0 mm 0.00 in0.0 mm 0.00 in0.0 mm
12:15 AM 67.8°F19.9°C 63.5°F17.5°C 86% 4.5 mph NNE7.2 kmh NNE 118.0 mph189.9 kmh 30.02 in1016.6 mb 0.00 in0.0 mm 0.00 in0.0 mm 0.00 in0.0 mm
12:30 AM 67.5°F19.7°C 63.5°F17.5°C 87% 2.2 mph NNE3.5 kmh NNE 122.0 mph196.3 kmh 30.02 in1016.6 mb 0.00 in0.0 mm 0.00 in0.0 mm 0.00 in0.0 mm
12:45 AM 67.3°F19.6°C 63.6°F17.6°C 88% 2.2 mph NE3.5 kmh NE 6.9 mph11.1 kmh 30.02 in1016.6 mb 0.00 in0.0 mm 0.00 in0.0 mm 0.00 in0.0 mm
01:00 AM 67.1°F19.5°C 63.8°F17.7°C 89% 4.5 mph E7.2 kmh E 9.2 mph14.8 kmh 30.00 in1015.9 mb 0.00 in0.0 mm 0.00 in0.0 mm 0.00 in0.0 mm
01:15 AM 67.1°F19.5°C 63.8°F17.7°C 89% 3.8 mph ESE6.1 kmh ESE 8.3 mph13.4 kmh 30.00 in1015.9 mb 0.00 in0.0 mm 0.00 in0.0 mm 0.00 in0.0 mm
01:30 AM 66.9°F19.4°C 63.6°F17.6°C 89% 3.1 mph E5.0 kmh E 8.3 mph13.4 kmh 30.01 in1016.3 mb 0.00 in0.0 mm 0.00 in0.0 mm 0.00 in0.0 mm
01:45 AM 66.7°F19.3°C 63.4°F17.4°C 89% 3.8 mph E6.1 kmh E 9.2 mph14.8 kmh 29.99 in1015.6 mb 0.00 in0.0 mm 0.00 in0.0 mm 0.00 in0.0 mm
02:00 AM 66.6°F19.2°C 63.2°F17.3°C 89% 4.5 mph E7.2 kmh E 9.8 mph15.8 kmh 29.99 in1015.6 mb 0.00 in0.0 mm 0.00 in0.0 mm 0.00 in0.0 mm
02:15 AM 66.6°F19.2°C 63.2°F17.3°C 89% 3.8 mph ENE6.1 kmh ENE 9.8 mph15.8 kmh 30.00 in1015.9 mb 0.00 in0.0 mm 0.00 in0.0 mm 0.00 in0.0 mm
02:30 AM 67.1°F19.5°C 63.5°F17.5°C 88% 3.1 mph E5.0 kmh E 9.8 mph15.8 kmh 30.00 in1015.9 mb 0.00 in0.0 mm 0.00 in0.0 mm 0.00 in0.0 mm
02:45 AM 67.1°F19.5°C 63.1°F17.3°C 87% 3.8 mph ESE6.1 kmh ESE 8.3 mph13.4 kmh 30.00 in1015.9 mb 0.00 in0.0 mm 0.00 in0.0 mm 0.00 in0.0 mm
03:00 AM 66.6°F19.2°C 62.3°F16.8°C 86% 3.8 mph ESE6.1 kmh ESE 10.7 mph17.2 kmh 30.00 in1015.9 mb 0.00 in0.0 mm 0.00 in0.0 mm 0.00 in0.0 mm
03:15 AM 66.4°F19.1°C 62.4°F16.9°C 87% 2.2 mph ESE3.5 kmh ESE 12.1 mph19.5 kmh 30.00 in1015.9 mb 0.00 in0.0 mm 0.00 in0.0 mm 0.00 in0.0 mm
03:30 AM 66.4°F19.1°C 62.4°F16.9°C 87% 6.9 mph E11.1 kmh E 12.1 mph19.5 kmh 29.99 in1015.6 mb 0.00 in0.0 mm 0.00 in0.0 mm 0.00 in0.0 mm
03:45 AM 66.6°F19.2°C 62.6°F17.0°C 87% 9.8 mph ENE15.8 kmh ENE 18.3 mph29.5 kmh 29.97 in1014.9 mb 0.00 in0.0 mm 0.00 in0.0 mm 0.00 in0.0 mm
04:00 AM 67.3°F19.6°C 62.6°F17.0°C 85% 9.2 mph NE14.8 kmh NE 17.4 mph28.0 kmh 29.97 in1014.9 mb 0.00 in0.0 mm 0.00 in0.0 mm 0.00 in0.0 mm
04:15 AM 68.4°F20.2°C 62.3°F16.8°C 81% 10.7 mph NE17.2 kmh NE 13.6 mph21.9 kmh 29.97 in1014.9 mb 0.00 in0.0 mm 0.00 in0.0 mm 0.00 in0.0 mm
04:30 AM 68.5°F20.3°C 62.2°F16.8°C 80% 5.4 mph NE8.7 kmh NE 12.1 mph19.5 kmh 29.97 in1014.9 mb 0.00 in0.0 mm 0.00 in0.0 mm 0.00 in0.0 mm
04:45 AM 68.9°F20.5°C 62.1°F16.7°C 79% 4.5 mph NE7.2 kmh NE 9.2 mph14.8 kmh 29.96 in1014.6 mb 0.00 in0.0 mm 0.00 in0.0 mm 0.00 in0.0 mm
05:00 AM 69.4°F20.8°C 61.6°F16.4°C 76% 3.1 mph NE5.0 kmh NE 9.8 mph15.8 kmh 29.96 in1014.6 mb 0.00 in0.0 mm 0.00 in0.0 mm 0.00 in0.0 mm
05:15 AM 69.6°F20.9°C 61.4°F16.3°C 75% 3.8 mph NE6.1 kmh NE 6.9 mph11.1 kmh 29.96 in1014.6 mb 0.00 in0.0 mm 0.00 in0.0 mm 0.00 in0.0 mm
05:30 AM 69.6°F20.9°C 61.0°F16.1°C 74% 5.4 mph NE8.7 kmh NE 9.8 mph15.8 kmh 29.95 in1014.2 mb 0.00 in0.0 mm 0.00 in0.0 mm 0.00 in0.0 mm
05:45 AM 70.0°F21.1°C 61.0°F16.1°C 73% 2.2 mph E3.5 kmh E 6.0 mph9.7 kmh 29.95 in1014.2 mb 0.00 in0.0 mm 0.00 in0.0 mm 0.00 in0.0 mm
06:00 AM 70.0°F21.1°C 60.6°F15.9°C 72% 3.1 mph ESE5.0 kmh ESE 5.4 mph8.7 kmh 29.95 in1014.2 mb 0.00 in0.0 mm 0.00 in0.0 mm 0.00 in0.0 mm
06:15 AM 69.8°F21.0°C 60.8°F16.0°C 73% 4.5 mph E7.2 kmh E 8.3 mph13.4 kmh 29.93 in1013.5 mb 0.00 in0.0 mm 0.00 in0.0 mm 0.00 in0.0 mm
06:30 AM 69.6°F20.9°C 61.0°F16.1°C 74% 3.1 mph E5.0 kmh E 6.9 mph11.1 kmh 29.94 in1013.9 mb 0.00 in0.0 mm 0.00 in0.0 mm 0.00 in0.0 mm
06:45 AM 70.0°F21.1°C 61.3°F16.3°C 74% 3.1 mph E5.0 kmh E 6.0 mph9.7 kmh 29.94 in1013.9 mb 0.00 in0.0 mm 0.00 in0.0 mm 0.00 in0.0 mm
07:00 AM 70.0°F21.1°C 61.7°F16.5°C 75% 3.8 mph NE6.1 kmh NE 6.9 mph11.1 kmh 29.94 in1013.9 mb 0.00 in0.0 mm 0.00 in0.0 mm 0.00 in0.0 mm
07:15 AM 70.3°F21.3°C 62.8°F17.1°C 77% 3.1 mph NE5.0 kmh NE 8.3 mph13.4 kmh 29.93 in1013.5 mb 0.00 in0.0 mm 0.00 in0.0 mm 0.00 in0.0 mm
07:30 AM 70.5°F21.4°C 63.4°F17.4°C 78% 2.2 mph NE3.5 kmh NE 4.5 mph7.2 kmh 29.94 in1013.9 mb 0.00 in0.0 mm 0.00 in0.0 mm 0.00 in0.0 mm
07:45 AM 70.7°F21.5°C 63.9°F17.7°C 79% 3.1 mph NE5.0 kmh NE 5.4 mph8.7 kmh 29.94 in1013.9 mb 0.00 in0.0 mm 0.00 in0.0 mm 0.00 in0.0 mm
08:00 AM 70.3°F21.3°C 64.3°F17.9°C 81% Calm Calm 3.8 mph6.1 kmh 29.95 in1014.2 mb 0.01 in0.3 mm 0.01 in0.3 mm 0.01 in0.3 mm
08:15 AM 70.5°F21.4°C 65.1°F18.4°C 83% 1.6 mph NNW2.6 kmh NNW 2.2 mph3.5 kmh 29.96 in1014.6 mb 0.01 in0.3 mm 0.00 in0.0 mm 0.01 in0.3 mm
08:30 AM 70.7°F21.5°C 65.3°F18.5°C 83% 4.5 mph NW7.2 kmh NW 7.6 mph12.2 kmh 29.95 in1014.2 mb 0.01 in0.3 mm 0.00 in0.0 mm 0.01 in0.3 mm
08:45 AM 70.7°F21.5°C 65.7°F18.7°C 84% 3.8 mph WNW6.1 kmh WNW 5.4 mph8.7 kmh 29.97 in1014.9 mb 0.01 in0.3 mm 0.00 in0.0 mm 0.01 in0.3 mm
09:00 AM 70.2°F21.2°C 64.1°F17.8°C 81% 3.8 mph N6.1 kmh N 7.6 mph12.2 kmh 29.93 in1013.5 mb 0.00 in0.0 mm 0.00 in0.0 mm 0.01 in0.3 mm
09:15 AM 72.0°F22.2°C 66.6°F19.2°C 83% 8.3 mph ENE13.4 kmh ENE 13.6 mph21.9 kmh 29.92 in1013.2 mb 0.00 in0.0 mm 0.00 in0.0 mm 0.01 in0.3 mm
09:30 AM 70.7°F21.5°C 64.3°F17.9°C 80% 9.8 mph ESE15.8 kmh ESE 19.0 mph30.6 kmh 29.92 in1013.2 mb 0.00 in0.0 mm 0.00 in0.0 mm 0.01 in0.3 mm
09:45 AM 70.7°F21.5°C 66.0°F18.9°C 85% 6.0 mph SE9.7 kmh SE 13.0 mph20.9 kmh 29.93 in1013.5 mb 0.00 in0.0 mm 0.00 in0.0 mm 0.01 in0.3 mm
10:00 AM 70.3°F21.3°C 66.3°F19.1°C 87% 8.3 mph ENE13.4 kmh ENE 10.7 mph17.2 kmh 29.93 in1013.5 mb 0.00 in0.0 mm 0.00 in0.0 mm 0.01 in0.3 mm
10:15 AM 70.2°F21.2°C 66.1°F18.9°C 87% 4.5 mph ESE7.2 kmh ESE 8.3 mph13.4 kmh 29.94 in1013.9 mb 0.00 in0.0 mm 0.00 in0.0 mm 0.01 in0.3 mm
10:30 AM 69.8°F21.0°C 65.8°F18.8°C 87% 2.2 mph ESE3.5 kmh ESE 6.0 mph9.7 kmh 29.94 in1013.9 mb 0.00 in0.0 mm 0.00 in0.0 mm 0.01 in0.3 mm
10:45 AM 70.3°F21.3°C 66.3°F19.1°C 87% Calm Calm 2.2 mph3.5 kmh 29.94 in1013.9 mb 0.00 in0.0 mm 0.00 in0.0 mm 0.01 in0.3 mm
11:00 AM 70.3°F21.3°C 66.0°F18.9°C 86% 2.2 mph E3.5 kmh E 4.5 mph7.2 kmh 29.94 in1013.9 mb 0.00 in0.0 mm 0.00 in0.0 mm 0.01 in0.3 mm
11:15 AM 70.2°F21.2°C 66.1°F18.9°C 87% 5.4 mph E8.7 kmh E 8.3 mph13.4 kmh 29.94 in1013.9 mb 0.01 in0.3 mm 0.04 in1.0 mm 0.03 in0.8 mm
11:30 AM 68.7°F20.4°C 65.7°F18.7°C 90% 3.8 mph ESE6.1 kmh ESE 15.9 mph25.6 kmh 29.93 in1013.5 mb 0.01 in0.3 mm 0.00 in0.0 mm 0.03 in0.8 mm
11:45 AM 68.5°F20.3°C 65.8°F18.8°C 91% 6.9 mph NNW11.1 kmh NNW 18.3 mph29.5 kmh 29.90 in1012.5 mb 0.01 in0.3 mm 0.00 in0.0 mm 0.03 in0.8 mm
12:00 PM 68.5°F20.3°C 65.8°F18.8°C 91% 6.0 mph NE9.7 kmh NE 11.4 mph18.3 kmh 29.90 in1012.5 mb 0.01 in0.3 mm 0.00 in0.0 mm 0.03 in0.8 mm
12:15 PM 69.3°F20.7°C 66.9°F19.4°C 92% 2.2 mph WNW3.5 kmh WNW 6.0 mph9.7 kmh 29.91 in1012.9 mb 0.00 in0.0 mm 0.00 in0.0 mm 0.03 in0.8 mm
12:30 PM 69.4°F20.8°C 66.7°F19.3°C 91% 2.2 mph WSW3.5 kmh WSW 9.8 mph15.8 kmh 29.91 in1012.9 mb 0.01 in0.3 mm 0.04 in1.0 mm 0.04 in1.0 mm
12:45 PM 68.9°F20.5°C 65.6°F18.7°C 89% 9.8 mph WNW15.8 kmh WNW 22.8 mph36.7 kmh 29.91 in1012.9 mb 0.03 in0.8 mm 0.08 in2.0 mm 0.05 in1.3 mm
01:00 PM 68.9°F20.5°C 65.9°F18.8°C 90% 3.8 mph WNW6.1 kmh WNW 9.8 mph15.8 kmh 29.91 in1012.9 mb 0.03 in0.8 mm 0.00 in0.0 mm 0.05 in1.3 mm
01:15 PM 68.9°F20.5°C 65.9°F18.8°C 90% 4.5 mph N7.2 kmh N 6.9 mph11.1 kmh 29.90 in1012.5 mb 0.03 in0.8 mm 0.00 in0.0 mm 0.05 in1.3 mm
01:30 PM 68.9°F20.5°C 66.2°F19.0°C 91% 2.2 mph NE3.5 kmh NE 9.8 mph15.8 kmh 29.91 in1012.9 mb 0.01 in0.3 mm 0.00 in0.0 mm 0.05 in1.3 mm
01:45 PM 68.5°F20.3°C 65.5°F18.6°C 90% 1.6 mph NE2.6 kmh NE 8.3 mph13.4 kmh 29.90 in1012.5 mb 0.00 in0.0 mm 0.00 in0.0 mm 0.05 in1.3 mm
02:00 PM 68.5°F20.3°C 65.2°F18.4°C 89% 1.6 mph NE2.6 kmh NE 4.5 mph7.2 kmh 29.91 in1012.9 mb 0.00 in0.0 mm 0.00 in0.0 mm 0.05 in1.3 mm
02:15 PM 68.5°F20.3°C 64.5°F18.1°C 87% 4.5 mph SE7.2 kmh SE 11.4 mph18.3 kmh 29.90 in1012.5 mb 0.00 in0.0 mm 0.00 in0.0 mm 0.05 in1.3 mm
02:30 PM 68.5°F20.3°C 64.9°F18.3°C 88% 4.5 mph NE7.2 kmh NE 9.8 mph15.8 kmh 29.87 in1011.5 mb 0.00 in0.0 mm 0.00 in0.0 mm 0.05 in1.3 mm
02:45 PM 68.9°F20.5°C 64.9°F18.3°C 87% 5.4 mph E8.7 kmh E 8.3 mph13.4 kmh 29.91 in1012.9 mb 0.00 in0.0 mm 0.00 in0.0 mm 0.05 in1.3 mm
03:00 PM 68.4°F20.2°C 65.3°F18.5°C 90% 4.5 mph E7.2 kmh E 9.8 mph15.8 kmh 29.89 in1012.2 mb 0.00 in0.0 mm 0.00 in0.0 mm 0.05 in1.3 mm
03:15 PM 70.0°F21.1°C 66.0°F18.9°C 87% 4.5 mph ESE7.2 kmh ESE 13.6 mph21.9 kmh 29.89 in1012.2 mb 0.00 in0.0 mm 0.00 in0.0 mm 0.05 in1.3 mm
03:30 PM 70.0°F21.1°C 64.6°F18.1°C 83% 3.1 mph NE5.0 kmh NE 17.4 mph28.0 kmh 29.89 in1012.2 mb 0.00 in0.0 mm 0.00 in0.0 mm 0.05 in1.3 mm
03:45 PM 70.9°F21.6°C 64.8°F18.2°C 81% 3.8 mph NE6.1 kmh NE 10.7 mph17.2 kmh 29.89 in1012.2 mb 0.00 in0.0 mm 0.00 in0.0 mm 0.05 in1.3 mm
04:00 PM 74.1°F23.4°C 64.9°F18.3°C 73% 3.1 mph NE5.0 kmh NE 7.6 mph12.2 kmh 29.89 in1012.2 mb 0.00 in0.0 mm 0.00 in0.0 mm 0.05 in1.3 mm
04:15 PM 78.8°F26.0°C 63.8°F17.7°C 60% 3.1 mph E5.0 kmh E 4.5 mph7.2 kmh 29.89 in1012.2 mb 0.00 in0.0 mm 0.00 in0.0 mm 0.05 in1.3 mm
04:30 PM 74.5°F23.6°C 60.2°F15.7°C 61% 3.1 mph E5.0 kmh E 5.4 mph8.7 kmh 29.89 in1012.2 mb 0.00 in0.0 mm 0.00 in0.0 mm 0.05 in1.3 mm
04:45 PM 73.9°F23.3°C 61.0°F16.1°C 64% 0.7 mph NE1.1 kmh NE 3.8 mph6.1 kmh 29.89 in1012.2 mb 0.00 in0.0 mm 0.00 in0.0 mm 0.05 in1.3 mm
05:00 PM 75.4°F24.1°C 60.6°F15.9°C 60% 3.1 mph E5.0 kmh E 6.0 mph9.7 kmh 29.88 in1011.9 mb 0.00 in0.0 mm 0.00 in0.0 mm 0.05 in1.3 mm
05:15 PM 73.6°F23.1°C 62.4°F16.9°C 68% 5.4 mph ESE8.7 kmh ESE 9.2 mph14.8 kmh 29.89 in1012.2 mb 0.00 in0.0 mm 0.00 in0.0 mm 0.05 in1.3 mm
05:30 PM 73.2°F22.9°C 64.5°F18.1°C 74% 3.8 mph ESE6.1 kmh ESE 9.2 mph14.8 kmh 29.89 in1012.2 mb 0.00 in0.0 mm 0.00 in0.0 mm 0.05 in1.3 mm
05:45 PM 72.0°F22.2°C 63.6°F17.6°C 75% 5.4 mph SSE8.7 kmh SSE 9.2 mph14.8 kmh 29.89 in1012.2 mb 0.00 in0.0 mm 0.00 in0.0 mm 0.05 in1.3 mm
06:00 PM 69.8°F21.0°C 62.3°F16.8°C 77% 6.0 mph SE9.7 kmh SE 12.1 mph19.5 kmh 29.88 in1011.9 mb 0.00 in0.0 mm 0.00 in0.0 mm 0.05 in1.3 mm
06:15 PM 69.3°F20.7°C 63.2°F17.3°C 81% 4.5 mph ESE7.2 kmh ESE 9.2 mph14.8 kmh 29.88 in1011.9 mb 0.00 in0.0 mm 0.00 in0.0 mm 0.05 in1.3 mm
06:30 PM 69.3°F20.7°C 63.6°F17.6°C 82% 5.4 mph ESE8.7 kmh ESE 8.3 mph13.4 kmh 29.88 in1011.9 mb 0.00 in0.0 mm 0.00 in0.0 mm 0.05 in1.3 mm
06:45 PM 68.5°F20.3°C 62.9°F17.2°C 82% 5.4 mph E8.7 kmh E 13.6 mph21.9 kmh 29.87 in1011.5 mb 0.00 in0.0 mm 0.00 in0.0 mm 0.05 in1.3 mm
07:00 PM 67.8°F19.9°C 63.2°F17.3°C 85% 2.2 mph SE3.5 kmh SE 12.1 mph19.5 kmh 29.88 in1011.9 mb 0.00 in0.0 mm 0.00 in0.0 mm 0.05 in1.3 mm
07:15 PM 67.3°F19.6°C 63.0°F17.2°C 86% 3.1 mph E5.0 kmh E 8.3 mph13.4 kmh 29.88 in1011.9 mb 0.00 in0.0 mm 0.00 in0.0 mm 0.05 in1.3 mm
07:30 PM 66.9°F19.4°C 63.3°F17.4°C 88% 3.8 mph ESE6.1 kmh ESE 6.9 mph11.1 kmh 29.89 in1012.2 mb 0.00 in0.0 mm 0.00 in0.0 mm 0.05 in1.3 mm
07:45 PM 66.6°F19.2°C 63.2°F17.3°C 89% 3.1 mph ESE5.0 kmh ESE 4.5 mph7.2 kmh 29.89 in1012.2 mb 0.00 in0.0 mm 0.00 in0.0 mm 0.05 in1.3 mm
07:57 PM 66.2°F19.0°C 63.5°F17.5°C 91% 3.1 mph SSE5.0 kmh SSE 3.8 mph6.1 kmh 29.89 in1012.2 mb 0.00 in0.0 mm 0.00 in0.0 mm 0.05 in1.3 mm
08:27 PM 65.5°F18.6°C 63.1°F17.3°C 92% 4.5 mph NW7.2 kmh NW 8.3 mph13.4 kmh 29.90 in1012.5 mb 0.01 in0.3 mm 0.02 in0.5 mm 0.07 in1.8 mm
08:45 PM 65.3°F18.5°C 62.9°F17.2°C 92% 4.5 mph E7.2 kmh E 9.8 mph15.8 kmh 29.91 in1012.9 mb 0.01 in0.3 mm 0.00 in0.0 mm 0.07 in1.8 mm
09:00 PM 65.1°F18.4°C 62.8°F17.1°C 92% 3.8 mph E6.1 kmh E 6.0 mph9.7 kmh 29.91 in1012.9 mb 0.00 in0.0 mm 0.00 in0.0 mm 0.07 in1.8 mm
09:15 PM 64.8°F18.2°C 62.7°F17.1°C 93% Calm Calm 5.4 mph8.7 kmh 29.91 in1012.9 mb 0.00 in0.0 mm 0.00 in0.0 mm 0.07 in1.8 mm
09:30 PM 64.8°F18.2°C 62.7°F17.1°C 93% Calm Calm 6.0 mph9.7 kmh 29.91 in1012.9 mb 0.00 in0.0 mm 0.00 in0.0 mm 0.07 in1.8 mm
09:45 PM 64.6°F18.1°C 62.5°F16.9°C 93% 1.6 mph NE2.6 kmh NE 3.8 mph6.1 kmh 29.91 in1012.9 mb 0.00 in0.0 mm 0.00 in0.0 mm 0.07 in1.8 mm
10:00 PM 64.4°F18.0°C 62.4°F16.9°C 93% 0.7 mph NE1.1 kmh NE 3.8 mph6.1 kmh 29.90 in1012.5 mb 0.00 in0.0 mm 0.00 in0.0 mm 0.07 in1.8 mm
10:15 PM 64.2°F17.9°C 61.9°F16.6°C 92% 0.7 mph N1.1 kmh N 1.6 mph2.6 kmh 29.91 in1012.9 mb 0.00 in0.0 mm 0.00 in0.0 mm 0.07 in1.8 mm
10:30 PM 64.0°F17.8°C 61.7°F16.5°C 92% Calm Calm 0.7 mph1.1 kmh 29.91 in1012.9 mb 0.00 in0.0 mm 0.00 in0.0 mm 0.07 in1.8 mm
10:45 PM 64.0°F17.8°C 61.7°F16.5°C 92% 0.7 mph NW1.1 kmh NW 1.6 mph2.6 kmh 29.90 in1012.5 mb 0.00 in0.0 mm 0.00 in0.0 mm 0.07 in1.8 mm
11:00 PM 64.4°F18.0°C 62.7°F17.1°C 94% 0.7 mph WSW1.1 kmh WSW 3.1 mph5.0 kmh 29.91 in1012.9 mb 0.00 in0.0 mm 0.00 in0.0 mm 0.06 in1.5 mm
11:15 PM 64.6°F18.1°C 62.8°F17.1°C 94% 0.7 mph WSW1.1 kmh WSW 2.2 mph3.5 kmh 29.90 in1012.5 mb 0.00 in0.0 mm 0.00 in0.0 mm 0.06 in1.5 mm
11:30 PM 64.6°F18.1°C 62.8°F17.1°C 94% 2.2 mph NW3.5 kmh NW 3.1 mph5.0 kmh 29.90 in1012.5 mb 0.00 in0.0 mm 0.00 in0.0 mm 0.06 in1.5 mm
11:45 PM 64.6°F18.1°C 62.8°F17.1°C 94% 2.2 mph NW3.5 kmh NW 3.1 mph5.0 kmh 29.90 in1012.5 mb 0.00 in0.0 mm 0.00 in0.0 mm 0.06 in1.5 mm